sensor_id;sensor_type;location;lat;lon;timestamp;P1;durP1;ratioP1;P2;durP2;ratioP2
34920;SDS011;21128;50.016;20.002;2023-04-03T00:00:38;4.30;;;3.27;;
34920;SDS011;21128;50.016;20.002;2023-04-03T00:03:25;5.07;;;3.30;;
34920;SDS011;21128;50.016;20.002;2023-04-03T00:06:11;4.40;;;3.20;;
34920;SDS011;21128;50.016;20.002;2023-04-03T00:08:57;4.33;;;3.43;;
34920;SDS011;21128;50.016;20.002;2023-04-03T00:11:45;3.90;;;3.10;;
34920;SDS011;21128;50.016;20.002;2023-04-03T00:14:31;3.70;;;3.00;;
34920;SDS011;21128;50.016;20.002;2023-04-03T00:17:23;4.10;;;3.50;;
34920;SDS011;21128;50.016;20.002;2023-04-03T00:20:09;5.10;;;3.50;;
34920;SDS011;21128;50.016;20.002;2023-04-03T00:22:55;4.20;;;2.80;;
34920;SDS011;21128;50.016;20.002;2023-04-03T00:25:42;5.77;;;3.87;;
34920;SDS011;21128;50.016;20.002;2023-04-03T00:28:28;4.45;;;3.50;;
34920;SDS011;21128;50.016;20.002;2023-04-03T00:31:14;4.13;;;3.30;;
34920;SDS011;21128;50.016;20.002;2023-04-03T00:34:01;7.57;;;3.90;;
34920;SDS011;21128;50.016;20.002;2023-04-03T00:36:46;6.27;;;4.17;;
34920;SDS011;21128;50.016;20.002;2023-04-03T00:39:32;4.00;;;3.40;;
34920;SDS011;21128;50.016;20.002;2023-04-03T00:42:17;5.27;;;4.23;;
34920;SDS011;21128;50.016;20.002;2023-04-03T00:47:49;5.37;;;3.90;;
34920;SDS011;21128;50.016;20.002;2023-04-03T00:50:37;5.33;;;4.00;;
34920;SDS011;21128;50.016;20.002;2023-04-03T00:53:26;5.03;;;3.80;;
34920;SDS011;21128;50.016;20.002;2023-04-03T00:56:23;4.33;;;3.90;;
34920;SDS011;21128;50.016;20.002;2023-04-03T00:59:14;4.77;;;3.50;;
34920;SDS011;21128;50.016;20.002;2023-04-03T01:02:02;6.13;;;4.20;;
34920;SDS011;21128;50.016;20.002;2023-04-03T01:04:49;5.83;;;3.63;;
34920;SDS011;21128;50.016;20.002;2023-04-03T01:07:35;4.40;;;3.47;;
34920;SDS011;21128;50.016;20.002;2023-04-03T01:10:22;4.63;;;3.50;;
34920;SDS011;21128;50.016;20.002;2023-04-03T01:16:37;4.43;;;3.70;;
34920;SDS011;21128;50.016;20.002;2023-04-03T01:19:23;4.73;;;3.60;;
34920;SDS011;21128;50.016;20.002;2023-04-03T01:22:17;5.43;;;3.50;;
34920;SDS011;21128;50.016;20.002;2023-04-03T01:25:11;4.23;;;3.63;;
34920;SDS011;21128;50.016;20.002;2023-04-03T01:27:57;5.47;;;3.67;;
34920;SDS011;21128;50.016;20.002;2023-04-03T01:30:45;4.60;;;3.83;;
34920;SDS011;21128;50.016;20.002;2023-04-03T01:33:32;5.43;;;3.63;;
34920;SDS011;21128;50.016;20.002;2023-04-03T01:36:20;4.63;;;3.50;;
34920;SDS011;21128;50.016;20.002;2023-04-03T01:39:11;4.23;;;3.37;;
34920;SDS011;21128;50.016;20.002;2023-04-03T01:41:57;5.77;;;3.80;;
34920;SDS011;21128;50.016;20.002;2023-04-03T01:44:44;4.53;;;3.30;;
34920;SDS011;21128;50.016;20.002;2023-04-03T01:47:31;5.37;;;3.70;;
34920;SDS011;21128;50.016;20.002;2023-04-03T01:50:17;4.30;;;3.70;;
34920;SDS011;21128;50.016;20.002;2023-04-03T01:53:03;4.20;;;3.33;;
34920;SDS011;21128;50.016;20.002;2023-04-03T01:55:48;5.10;;;3.50;;
34920;SDS011;21128;50.016;20.002;2023-04-03T01:58:34;4.60;;;3.57;;
34920;SDS011;21128;50.016;20.002;2023-04-03T02:01:21;4.00;;;3.17;;
34920;SDS011;21128;50.016;20.002;2023-04-03T02:04:07;4.40;;;3.27;;
34920;SDS011;21128;50.016;20.002;2023-04-03T02:06:53;5.73;;;4.23;;
34920;SDS011;21128;50.016;20.002;2023-04-03T02:09:38;4.90;;;3.73;;
34920;SDS011;21128;50.016;20.002;2023-04-03T02:12:25;4.00;;;3.60;;
34920;SDS011;21128;50.016;20.002;2023-04-03T02:15:10;4.97;;;3.80;;
34920;SDS011;21128;50.016;20.002;2023-04-03T02:18:02;6.83;;;4.13;;
34920;SDS011;21128;50.016;20.002;2023-04-03T02:20:47;6.75;;;3.95;;
34920;SDS011;21128;50.016;20.002;2023-04-03T02:23:33;6.47;;;3.93;;
34920;SDS011;21128;50.016;20.002;2023-04-03T02:26:21;5.07;;;3.60;;
34920;SDS011;21128;50.016;20.002;2023-04-03T02:29:07;4.63;;;3.40;;
34920;SDS011;21128;50.016;20.002;2023-04-03T02:31:53;4.80;;;3.30;;
34920;SDS011;21128;50.016;20.002;2023-04-03T02:34:39;6.43;;;3.10;;
34920;SDS011;21128;50.016;20.002;2023-04-03T02:37:25;5.13;;;3.63;;
34920;SDS011;21128;50.016;20.002;2023-04-03T02:40:11;5.37;;;3.30;;
34920;SDS011;21128;50.016;20.002;2023-04-03T02:42:56;5.03;;;3.10;;
34920;SDS011;21128;50.016;20.002;2023-04-03T02:45:42;3.97;;;2.87;;
34920;SDS011;21128;50.016;20.002;2023-04-03T02:48:28;3.97;;;2.93;;
34920;SDS011;21128;50.016;20.002;2023-04-03T02:51:14;4.47;;;3.00;;
34920;SDS011;21128;50.016;20.002;2023-04-03T02:54:01;4.67;;;2.77;;
34920;SDS011;21128;50.016;20.002;2023-04-03T02:56:47;4.37;;;2.80;;
34920;SDS011;21128;50.016;20.002;2023-04-03T02:59:33;3.50;;;3.00;;
34920;SDS011;21128;50.016;20.002;2023-04-03T03:02:19;5.23;;;3.10;;
34920;SDS011;21128;50.016;20.002;2023-04-03T03:05:05;4.50;;;2.83;;
34920;SDS011;21128;50.016;20.002;2023-04-03T03:07:52;3.97;;;2.50;;
34920;SDS011;21128;50.016;20.002;2023-04-03T03:10:38;5.30;;;2.50;;
34920;SDS011;21128;50.016;20.002;2023-04-03T03:13:24;4.70;;;2.83;;
34920;SDS011;21128;50.016;20.002;2023-04-03T03:16:24;3.22;;;2.67;;
34920;SDS011;21128;50.016;20.002;2023-04-03T03:19:11;3.10;;;2.30;;
34920;SDS011;21128;50.016;20.002;2023-04-03T03:21:57;2.83;;;2.33;;
34920;SDS011;21128;50.016;20.002;2023-04-03T03:24:42;3.40;;;2.40;;
34920;SDS011;21128;50.016;20.002;2023-04-03T03:27:28;3.23;;;2.50;;
34920;SDS011;21128;50.016;20.002;2023-04-03T03:30:14;2.87;;;2.10;;
34920;SDS011;21128;50.016;20.002;2023-04-03T03:33:00;3.27;;;2.50;;
34920;SDS011;21128;50.016;20.002;2023-04-03T03:35:47;3.43;;;2.40;;
34920;SDS011;21128;50.016;20.002;2023-04-03T03:38:33;3.33;;;2.17;;
34920;SDS011;21128;50.016;20.002;2023-04-03T03:41:18;3.60;;;2.77;;
34920;SDS011;21128;50.016;20.002;2023-04-03T03:44:05;3.85;;;2.35;;
34920;SDS011;21128;50.016;20.002;2023-04-03T03:46:50;2.67;;;2.33;;
34920;SDS011;21128;50.016;20.002;2023-04-03T03:49:36;3.33;;;2.10;;
34920;SDS011;21128;50.016;20.002;2023-04-03T03:52:22;5.30;;;2.10;;
34920;SDS011;21128;50.016;20.002;2023-04-03T03:55:08;3.60;;;2.47;;
34920;SDS011;21128;50.016;20.002;2023-04-03T03:57:54;3.70;;;2.30;;
34920;SDS011;21128;50.016;20.002;2023-04-03T04:00:40;3.17;;;1.97;;
34920;SDS011;21128;50.016;20.002;2023-04-03T04:03:26;2.70;;;2.20;;
34920;SDS011;21128;50.016;20.002;2023-04-03T04:06:12;5.30;;;2.67;;
34920;SDS011;21128;50.016;20.002;2023-04-03T04:08:57;2.87;;;1.97;;
34920;SDS011;21128;50.016;20.002;2023-04-03T04:11:44;2.77;;;2.20;;
34920;SDS011;21128;50.016;20.002;2023-04-03T04:14:30;2.93;;;2.10;;
34920;SDS011;21128;50.016;20.002;2023-04-03T04:17:22;2.57;;;2.10;;
34920;SDS011;21128;50.016;20.002;2023-04-03T04:20:08;4.13;;;2.67;;
34920;SDS011;21128;50.016;20.002;2023-04-03T04:22:54;4.53;;;2.27;;
34920;SDS011;21128;50.016;20.002;2023-04-03T04:25:40;4.10;;;2.23;;
34920;SDS011;21128;50.016;20.002;2023-04-03T04:28:26;3.33;;;2.47;;
34920;SDS011;21128;50.016;20.002;2023-04-03T04:31:12;3.00;;;2.43;;
34920;SDS011;21128;50.016;20.002;2023-04-03T04:33:58;4.60;;;2.70;;
34920;SDS011;21128;50.016;20.002;2023-04-03T04:36:44;2.50;;;2.17;;
34920;SDS011;21128;50.016;20.002;2023-04-03T04:39:32;2.20;;;1.97;;
34920;SDS011;21128;50.016;20.002;2023-04-03T04:42:18;3.83;;;2.47;;
34920;SDS011;21128;50.016;20.002;2023-04-03T04:45:05;4.03;;;2.80;;
34920;SDS011;21128;50.016;20.002;2023-04-03T04:47:50;5.20;;;3.57;;
34920;SDS011;21128;50.016;20.002;2023-04-03T04:50:38;5.60;;;3.75;;
34920;SDS011;21128;50.016;20.002;2023-04-03T04:53:23;4.93;;;3.37;;
34920;SDS011;21128;50.016;20.002;2023-04-03T04:56:09;3.35;;;2.20;;
34920;SDS011;21128;50.016;20.002;2023-04-03T04:58:55;4.15;;;2.85;;
34920;SDS011;21128;50.016;20.002;2023-04-03T05:01:41;8.13;;;3.20;;
34920;SDS011;21128;50.016;20.002;2023-04-03T05:04:27;5.87;;;3.10;;
34920;SDS011;21128;50.016;20.002;2023-04-03T05:07:13;3.43;;;2.73;;
34920;SDS011;21128;50.016;20.002;2023-04-03T05:09:59;5.17;;;2.67;;
34920;SDS011;21128;50.016;20.002;2023-04-03T05:12:45;6.23;;;3.23;;
34920;SDS011;21128;50.016;20.002;2023-04-03T05:15:30;6.10;;;3.10;;
34920;SDS011;21128;50.016;20.002;2023-04-03T05:18:23;5.40;;;2.90;;
34920;SDS011;21128;50.016;20.002;2023-04-03T05:21:09;4.77;;;2.80;;
34920;SDS011;21128;50.016;20.002;2023-04-03T05:23:55;5.83;;;2.93;;
34920;SDS011;21128;50.016;20.002;2023-04-03T05:26:41;4.73;;;2.87;;
34920;SDS011;21128;50.016;20.002;2023-04-03T05:29:28;4.17;;;2.70;;
34920;SDS011;21128;50.016;20.002;2023-04-03T05:32:14;4.50;;;2.95;;
34920;SDS011;21128;50.016;20.002;2023-04-03T05:35:00;10.13;;;5.33;;
34920;SDS011;21128;50.016;20.002;2023-04-03T05:37:46;7.03;;;3.10;;
34920;SDS011;21128;50.016;20.002;2023-04-03T05:40:32;4.17;;;2.97;;
34920;SDS011;21128;50.016;20.002;2023-04-03T05:43:17;4.13;;;2.90;;
34920;SDS011;21128;50.016;20.002;2023-04-03T05:46:03;6.83;;;3.00;;
34920;SDS011;21128;50.016;20.002;2023-04-03T05:48:50;4.73;;;3.20;;
34920;SDS011;21128;50.016;20.002;2023-04-03T05:51:36;5.63;;;3.27;;
34920;SDS011;21128;50.016;20.002;2023-04-03T05:54:28;4.50;;;2.77;;
34920;SDS011;21128;50.016;20.002;2023-04-03T06:00:03;5.05;;;3.35;;
34920;SDS011;21128;50.016;20.002;2023-04-03T06:02:56;6.77;;;3.27;;
34920;SDS011;21128;50.016;20.002;2023-04-03T06:05:42;4.53;;;3.00;;
34920;SDS011;21128;50.016;20.002;2023-04-03T06:08:28;7.37;;;3.10;;
34920;SDS011;21128;50.016;20.002;2023-04-03T06:11:14;5.67;;;3.43;;
34920;SDS011;21128;50.016;20.002;2023-04-03T06:14:06;7.43;;;3.37;;
34920;SDS011;21128;50.016;20.002;2023-04-03T06:17:06;6.83;;;3.23;;
34920;SDS011;21128;50.016;20.002;2023-04-03T06:19:54;5.55;;;2.90;;
34920;SDS011;21128;50.016;20.002;2023-04-03T06:22:41;4.57;;;2.83;;
34920;SDS011;21128;50.016;20.002;2023-04-03T06:25:27;8.00;;;3.37;;
34920;SDS011;21128;50.016;20.002;2023-04-03T06:28:13;6.80;;;2.80;;
34920;SDS011;21128;50.016;20.002;2023-04-03T06:30:59;6.03;;;2.30;;
34920;SDS011;21128;50.016;20.002;2023-04-03T06:33:45;4.67;;;2.80;;
34920;SDS011;21128;50.016;20.002;2023-04-03T06:36:31;8.00;;;3.00;;
34920;SDS011;21128;50.016;20.002;2023-04-03T06:39:18;6.43;;;2.53;;
34920;SDS011;21128;50.016;20.002;2023-04-03T06:42:08;7.00;;;2.40;;
34920;SDS011;21128;50.016;20.002;2023-04-03T06:44:54;5.83;;;2.80;;
34920;SDS011;21128;50.016;20.002;2023-04-03T06:47:39;6.03;;;2.30;;
34920;SDS011;21128;50.016;20.002;2023-04-03T06:50:25;8.40;;;3.30;;
34920;SDS011;21128;50.016;20.002;2023-04-03T06:53:11;7.17;;;3.20;;
34920;SDS011;21128;50.016;20.002;2023-04-03T06:55:57;7.00;;;3.03;;
34920;SDS011;21128;50.016;20.002;2023-04-03T06:58:43;9.20;;;2.57;;
34920;SDS011;21128;50.016;20.002;2023-04-03T07:01:30;7.33;;;2.90;;
34920;SDS011;21128;50.016;20.002;2023-04-03T07:04:16;10.33;;;2.67;;
34920;SDS011;21128;50.016;20.002;2023-04-03T07:07:03;9.50;;;2.65;;
34920;SDS011;21128;50.016;20.002;2023-04-03T07:09:49;4.57;;;2.20;;
34920;SDS011;21128;50.016;20.002;2023-04-03T07:12:35;5.33;;;2.30;;
34920;SDS011;21128;50.016;20.002;2023-04-03T07:15:27;7.73;;;2.70;;
34920;SDS011;21128;50.016;20.002;2023-04-03T07:18:13;6.83;;;3.10;;
34920;SDS011;21128;50.016;20.002;2023-04-03T07:21:00;6.50;;;2.57;;
34920;SDS011;21128;50.016;20.002;2023-04-03T07:23:46;6.17;;;2.30;;
34920;SDS011;21128;50.016;20.002;2023-04-03T07:26:32;3.63;;;2.30;;
34920;SDS011;21128;50.016;20.002;2023-04-03T07:29:18;6.60;;;2.63;;
34920;SDS011;21128;50.016;20.002;2023-04-03T07:32:06;4.10;;;1.87;;
34920;SDS011;21128;50.016;20.002;2023-04-03T07:34:53;4.17;;;2.30;;
34920;SDS011;21128;50.016;20.002;2023-04-03T07:37:39;5.47;;;2.10;;
34920;SDS011;21128;50.016;20.002;2023-04-03T07:40:25;10.27;;;2.27;;
34920;SDS011;21128;50.016;20.002;2023-04-03T07:43:11;10.40;;;2.60;;
34920;SDS011;21128;50.016;20.002;2023-04-03T07:45:58;7.73;;;2.60;;
34920;SDS011;21128;50.016;20.002;2023-04-03T07:48:44;5.13;;;1.90;;
34920;SDS011;21128;50.016;20.002;2023-04-03T07:51:30;4.40;;;2.20;;
34920;SDS011;21128;50.016;20.002;2023-04-03T07:54:16;3.87;;;2.40;;
34920;SDS011;21128;50.016;20.002;2023-04-03T07:57:02;4.80;;;2.10;;
34920;SDS011;21128;50.016;20.002;2023-04-03T07:59:49;7.90;;;2.43;;
34920;SDS011;21128;50.016;20.002;2023-04-03T08:02:37;5.33;;;2.20;;
34920;SDS011;21128;50.016;20.002;2023-04-03T08:05:23;6.20;;;2.00;;
34920;SDS011;21128;50.016;20.002;2023-04-03T08:08:10;4.10;;;2.10;;
34920;SDS011;21128;50.016;20.002;2023-04-03T08:10:58;8.57;;;2.47;;
34920;SDS011;21128;50.016;20.002;2023-04-03T08:13:45;4.47;;;2.13;;
34920;SDS011;21128;50.016;20.002;2023-04-03T08:16:31;8.53;;;3.07;;
34920;SDS011;21128;50.016;20.002;2023-04-03T08:19:23;6.67;;;2.40;;
34920;SDS011;21128;50.016;20.002;2023-04-03T08:22:10;4.30;;;2.40;;
34920;SDS011;21128;50.016;20.002;2023-04-03T08:24:56;7.03;;;2.70;;
34920;SDS011;21128;50.016;20.002;2023-04-03T08:27:42;10.67;;;2.90;;
34920;SDS011;21128;50.016;20.002;2023-04-03T08:30:29;6.43;;;2.70;;
34920;SDS011;21128;50.016;20.002;2023-04-03T08:33:15;5.87;;;2.63;;
34920;SDS011;21128;50.016;20.002;2023-04-03T08:36:03;8.20;;;3.40;;
34920;SDS011;21128;50.016;20.002;2023-04-03T08:38:50;5.67;;;2.40;;
34920;SDS011;21128;50.016;20.002;2023-04-03T08:41:38;6.43;;;2.80;;
34920;SDS011;21128;50.016;20.002;2023-04-03T08:44:46;5.27;;;2.40;;
34920;SDS011;21128;50.016;20.002;2023-04-03T08:50:56;8.57;;;2.60;;
34920;SDS011;21128;50.016;20.002;2023-04-03T08:54:01;5.37;;;2.50;;
34920;SDS011;21128;50.016;20.002;2023-04-03T08:57:03;7.67;;;2.20;;
34920;SDS011;21128;50.016;20.002;2023-04-03T08:59:51;5.43;;;2.77;;
34920;SDS011;21128;50.016;20.002;2023-04-03T09:02:50;5.30;;;2.57;;
34920;SDS011;21128;50.016;20.002;2023-04-03T09:05:40;4.43;;;2.47;;
34920;SDS011;21128;50.016;20.002;2023-04-03T09:08:29;6.57;;;2.57;;
34920;SDS011;21128;50.016;20.002;2023-04-03T09:11:26;6.33;;;2.67;;
34920;SDS011;21128;50.016;20.002;2023-04-03T09:18:22;7.77;;;2.70;;
34920;SDS011;21128;50.016;20.002;2023-04-03T09:21:22;5.30;;;1.83;;
34920;SDS011;21128;50.016;20.002;2023-04-03T09:24:16;4.73;;;2.63;;
34920;SDS011;21128;50.016;20.002;2023-04-03T09:27:10;7.10;;;2.43;;
34920;SDS011;21128;50.016;20.002;2023-04-03T09:29:57;7.67;;;2.83;;
34920;SDS011;21128;50.016;20.002;2023-04-03T09:32:44;5.23;;;2.87;;
34920;SDS011;21128;50.016;20.002;2023-04-03T09:35:33;9.27;;;3.53;;
34920;SDS011;21128;50.016;20.002;2023-04-03T09:38:21;6.43;;;2.90;;
34920;SDS011;21128;50.016;20.002;2023-04-03T09:41:15;6.77;;;3.20;;
34920;SDS011;21128;50.016;20.002;2023-04-03T09:44:04;9.67;;;2.83;;
34920;SDS011;21128;50.016;20.002;2023-04-03T09:47:26;4.20;;;2.77;;
34920;SDS011;21128;50.016;20.002;2023-04-03T09:50:18;8.95;;;3.10;;
34920;SDS011;21128;50.016;20.002;2023-04-03T09:53:07;6.30;;;2.97;;
34920;SDS011;21128;50.016;20.002;2023-04-03T10:01:57;8.57;;;3.83;;
34920;SDS011;21128;50.016;20.002;2023-04-03T10:04:45;12.40;;;3.33;;
34920;SDS011;21128;50.016;20.002;2023-04-03T10:07:35;6.35;;;3.35;;
34920;SDS011;21128;50.016;20.002;2023-04-03T10:10:23;5.03;;;2.70;;
34920;SDS011;21128;50.016;20.002;2023-04-03T10:13:11;7.93;;;2.90;;
34920;SDS011;21128;50.016;20.002;2023-04-03T10:16:11;5.30;;;2.80;;
34920;SDS011;21128;50.016;20.002;2023-04-03T10:19:05;5.45;;;2.55;;
34920;SDS011;21128;50.016;20.002;2023-04-03T10:22:08;6.57;;;3.13;;
34920;SDS011;21128;50.016;20.002;2023-04-03T10:25:05;6.47;;;2.70;;
34920;SDS011;21128;50.016;20.002;2023-04-03T10:31:09;8.53;;;2.80;;
34920;SDS011;21128;50.016;20.002;2023-04-03T10:34:18;7.10;;;2.80;;
34920;SDS011;21128;50.016;20.002;2023-04-03T10:55:38;7.83;;;2.70;;
34920;SDS011;21128;50.016;20.002;2023-04-03T10:58:48;7.23;;;2.87;;
34920;SDS011;21128;50.016;20.002;2023-04-03T11:01:40;5.53;;;2.67;;
34920;SDS011;21128;50.016;20.002;2023-04-03T11:04:29;8.50;;;2.80;;
34920;SDS011;21128;50.016;20.002;2023-04-03T11:07:20;15.53;;;3.20;;
34920;SDS011;21128;50.016;20.002;2023-04-03T11:10:20;11.17;;;2.87;;
34920;SDS011;21128;50.016;20.002;2023-04-03T11:13:14;7.27;;;2.60;;
34920;SDS011;21128;50.016;20.002;2023-04-03T11:16:28;8.03;;;3.40;;
34920;SDS011;21128;50.016;20.002;2023-04-03T11:19:38;6.17;;;3.20;;
34920;SDS011;21128;50.016;20.002;2023-04-03T11:22:41;9.40;;;3.90;;
34920;SDS011;21128;50.016;20.002;2023-04-03T11:25:29;9.17;;;3.67;;
34920;SDS011;21128;50.016;20.002;2023-04-03T11:28:19;10.00;;;3.47;;
34920;SDS011;21128;50.016;20.002;2023-04-03T11:31:15;5.53;;;2.90;;
34920;SDS011;21128;50.016;20.002;2023-04-03T11:37:38;9.00;;;2.93;;
34920;SDS011;21128;50.016;20.002;2023-04-03T11:40:26;5.20;;;3.20;;
34920;SDS011;21128;50.016;20.002;2023-04-03T11:43:20;5.63;;;3.03;;
34920;SDS011;21128;50.016;20.002;2023-04-03T11:46:10;7.70;;;3.60;;
34920;SDS011;21128;50.016;20.002;2023-04-03T11:48:56;6.67;;;2.80;;
34920;SDS011;21128;50.016;20.002;2023-04-03T11:51:42;6.13;;;3.37;;
34920;SDS011;21128;50.016;20.002;2023-04-03T11:54:36;5.57;;;2.87;;
34920;SDS011;21128;50.016;20.002;2023-04-03T11:57:43;6.20;;;2.67;;
34920;SDS011;21128;50.016;20.002;2023-04-03T12:03:34;5.80;;;2.70;;
34920;SDS011;21128;50.016;20.002;2023-04-03T12:09:54;5.27;;;2.20;;
34920;SDS011;21128;50.016;20.002;2023-04-03T12:12:55;4.95;;;2.83;;
34920;SDS011;21128;50.016;20.002;2023-04-03T12:15:47;12.40;;;3.50;;
34920;SDS011;21128;50.016;20.002;2023-04-03T12:24:34;5.73;;;2.53;;
34920;SDS011;21128;50.016;20.002;2023-04-03T12:27:36;6.87;;;2.77;;
34920;SDS011;21128;50.016;20.002;2023-04-03T12:30:27;5.20;;;2.55;;
34920;SDS011;21128;50.016;20.002;2023-04-03T12:33:38;6.30;;;2.37;;
34920;SDS011;21128;50.016;20.002;2023-04-03T12:45:25;4.57;;;2.07;;
34920;SDS011;21128;50.016;20.002;2023-04-03T12:48:13;5.07;;;2.20;;
34920;SDS011;21128;50.016;20.002;2023-04-03T12:51:01;5.73;;;2.10;;
34920;SDS011;21128;50.016;20.002;2023-04-03T12:53:49;5.70;;;2.60;;
34920;SDS011;21128;50.016;20.002;2023-04-03T12:56:36;7.87;;;2.40;;
34920;SDS011;21128;50.016;20.002;2023-04-03T12:59:23;4.27;;;2.43;;
34920;SDS011;21128;50.016;20.002;2023-04-03T13:02:20;10.10;;;2.57;;
34920;SDS011;21128;50.016;20.002;2023-04-03T13:05:17;5.10;;;2.40;;
34920;SDS011;21128;50.016;20.002;2023-04-03T13:08:06;7.37;;;2.20;;
34920;SDS011;21128;50.016;20.002;2023-04-03T13:10:59;4.72;;;2.12;;
34920;SDS011;21128;50.016;20.002;2023-04-03T13:13:55;9.90;;;2.27;;
34920;SDS011;21128;50.016;20.002;2023-04-03T13:16:58;4.37;;;2.17;;
34920;SDS011;21128;50.016;20.002;2023-04-03T13:19:48;7.70;;;2.47;;
34920;SDS011;21128;50.016;20.002;2023-04-03T13:22:37;8.77;;;3.10;;
34920;SDS011;21128;50.016;20.002;2023-04-03T13:25:45;13.70;;;3.47;;
34920;SDS011;21128;50.016;20.002;2023-04-03T13:28:33;7.20;;;3.37;;
34920;SDS011;21128;50.016;20.002;2023-04-03T13:31:26;4.90;;;2.57;;
34920;SDS011;21128;50.016;20.002;2023-04-03T13:34:17;4.67;;;2.70;;
34920;SDS011;21128;50.016;20.002;2023-04-03T13:37:04;7.83;;;2.80;;
34920;SDS011;21128;50.016;20.002;2023-04-03T13:43:02;3.30;;;2.00;;
34920;SDS011;21128;50.016;20.002;2023-04-03T13:48:45;4.93;;;2.70;;
34920;SDS011;21128;50.016;20.002;2023-04-03T13:51:33;7.33;;;2.30;;
34920;SDS011;21128;50.016;20.002;2023-04-03T13:54:32;4.20;;;1.93;;
34920;SDS011;21128;50.016;20.002;2023-04-03T13:57:22;6.15;;;2.45;;
34920;SDS011;21128;50.016;20.002;2023-04-03T14:00:31;5.40;;;2.50;;
34920;SDS011;21128;50.016;20.002;2023-04-03T14:03:24;5.25;;;2.65;;
34920;SDS011;21128;50.016;20.002;2023-04-03T14:06:18;5.85;;;2.60;;
34920;SDS011;21128;50.016;20.002;2023-04-03T14:09:04;4.53;;;2.70;;
34920;SDS011;21128;50.016;20.002;2023-04-03T14:11:52;5.10;;;2.77;;
34920;SDS011;21128;50.016;20.002;2023-04-03T14:14:40;6.35;;;3.00;;
34920;SDS011;21128;50.016;20.002;2023-04-03T14:17:26;6.77;;;2.97;;
34920;SDS011;21128;50.016;20.002;2023-04-03T14:20:20;10.03;;;3.50;;
34920;SDS011;21128;50.016;20.002;2023-04-03T14:23:09;5.53;;;2.93;;
34920;SDS011;21128;50.016;20.002;2023-04-03T14:25:55;12.13;;;2.70;;
34920;SDS011;21128;50.016;20.002;2023-04-03T14:28:41;10.07;;;2.60;;
34920;SDS011;21128;50.016;20.002;2023-04-03T14:31:28;8.03;;;2.63;;
34920;SDS011;21128;50.016;20.002;2023-04-03T14:34:14;6.47;;;2.57;;
34920;SDS011;21128;50.016;20.002;2023-04-03T14:37:00;4.73;;;2.67;;
34920;SDS011;21128;50.016;20.002;2023-04-03T14:39:46;9.27;;;2.90;;
34920;SDS011;21128;50.016;20.002;2023-04-03T14:42:34;5.87;;;2.70;;
34920;SDS011;21128;50.016;20.002;2023-04-03T14:45:22;7.53;;;2.90;;
34920;SDS011;21128;50.016;20.002;2023-04-03T14:48:10;9.87;;;3.50;;
34920;SDS011;21128;50.016;20.002;2023-04-03T14:51:09;10.60;;;3.00;;
34920;SDS011;21128;50.016;20.002;2023-04-03T14:53:58;4.97;;;3.00;;
34920;SDS011;21128;50.016;20.002;2023-04-03T14:56:44;7.03;;;3.20;;
34920;SDS011;21128;50.016;20.002;2023-04-03T14:59:31;7.77;;;3.13;;
34920;SDS011;21128;50.016;20.002;2023-04-03T15:02:26;6.77;;;3.00;;
34920;SDS011;21128;50.016;20.002;2023-04-03T15:05:22;6.55;;;2.80;;
34920;SDS011;21128;50.016;20.002;2023-04-03T15:08:13;6.93;;;3.10;;
34920;SDS011;21128;50.016;20.002;2023-04-03T15:11:14;12.33;;;3.03;;
34920;SDS011;21128;50.016;20.002;2023-04-03T15:14:00;7.50;;;2.40;;
34920;SDS011;21128;50.016;20.002;2023-04-03T15:16:46;8.53;;;3.37;;
34920;SDS011;21128;50.016;20.002;2023-04-03T15:19:38;6.63;;;3.30;;
34920;SDS011;21128;50.016;20.002;2023-04-03T15:22:25;11.57;;;3.23;;
34920;SDS011;21128;50.016;20.002;2023-04-03T15:25:11;7.47;;;2.47;;
34920;SDS011;21128;50.016;20.002;2023-04-03T15:27:57;9.70;;;3.13;;
34920;SDS011;21128;50.016;20.002;2023-04-03T15:30:25;6.13;;;2.77;;
34920;SDS011;21128;50.016;20.002;2023-04-03T15:32:52;4.40;;;2.45;;
34920;SDS011;21128;50.016;20.002;2023-04-03T15:35:20;4.43;;;2.17;;
34920;SDS011;21128;50.016;20.002;2023-04-03T15:37:47;3.77;;;2.43;;
34920;SDS011;21128;50.016;20.002;2023-04-03T15:40:15;5.80;;;2.75;;
34920;SDS011;21128;50.016;20.002;2023-04-03T15:42:42;4.45;;;2.40;;
34920;SDS011;21128;50.016;20.002;2023-04-03T15:45:09;4.77;;;2.67;;
34920;SDS011;21128;50.016;20.002;2023-04-03T15:47:56;8.60;;;4.33;;
34920;SDS011;21128;50.016;20.002;2023-04-03T15:50:43;8.80;;;3.10;;
34920;SDS011;21128;50.016;20.002;2023-04-03T15:53:29;10.90;;;3.30;;
34920;SDS011;21128;50.016;20.002;2023-04-03T15:56:15;6.90;;;2.87;;
34920;SDS011;21128;50.016;20.002;2023-04-03T15:59:00;8.95;;;3.20;;
34920;SDS011;21128;50.016;20.002;2023-04-03T16:01:47;5.25;;;2.55;;
34920;SDS011;21128;50.016;20.002;2023-04-03T16:04:34;5.80;;;2.47;;
34920;SDS011;21128;50.016;20.002;2023-04-03T16:07:20;10.73;;;2.53;;
34920;SDS011;21128;50.016;20.002;2023-04-03T16:10:07;5.43;;;2.33;;
34920;SDS011;21128;50.016;20.002;2023-04-03T16:12:35;4.63;;;2.20;;
34920;SDS011;21128;50.016;20.002;2023-04-03T16:15:03;6.00;;;2.20;;
34920;SDS011;21128;50.016;20.002;2023-04-03T16:17:31;4.53;;;2.30;;
34920;SDS011;21128;50.016;20.002;2023-04-03T16:20:00;3.20;;;2.10;;
34920;SDS011;21128;50.016;20.002;2023-04-03T16:22:27;5.07;;;2.80;;
34920;SDS011;21128;50.016;20.002;2023-04-03T16:24:55;9.93;;;3.80;;
34920;SDS011;21128;50.016;20.002;2023-04-03T16:27:22;5.27;;;2.83;;
34920;SDS011;21128;50.016;20.002;2023-04-03T16:29:54;6.17;;;2.90;;
34920;SDS011;21128;50.016;20.002;2023-04-03T16:32:21;8.07;;;2.70;;
34920;SDS011;21128;50.016;20.002;2023-04-03T16:34:49;6.07;;;2.73;;
34920;SDS011;21128;50.016;20.002;2023-04-03T16:37:16;7.10;;;2.83;;
34920;SDS011;21128;50.016;20.002;2023-04-03T16:39:43;3.73;;;2.30;;
34920;SDS011;21128;50.016;20.002;2023-04-03T16:42:10;4.45;;;2.15;;
34920;SDS011;21128;50.016;20.002;2023-04-03T16:44:37;5.10;;;2.12;;
34920;SDS011;21128;50.016;20.002;2023-04-03T16:47:06;4.77;;;2.43;;
34920;SDS011;21128;50.016;20.002;2023-04-03T16:49:37;5.65;;;2.65;;
34920;SDS011;21128;50.016;20.002;2023-04-03T16:52:05;5.87;;;2.60;;
34920;SDS011;21128;50.016;20.002;2023-04-03T16:54:32;6.20;;;3.03;;
34920;SDS011;21128;50.016;20.002;2023-04-03T16:56:59;5.43;;;2.90;;
34920;SDS011;21128;50.016;20.002;2023-04-03T16:59:26;7.00;;;2.62;;
34920;SDS011;21128;50.016;20.002;2023-04-03T17:01:53;7.23;;;2.87;;
34920;SDS011;21128;50.016;20.002;2023-04-03T17:04:20;11.93;;;3.30;;
34920;SDS011;21128;50.016;20.002;2023-04-03T17:06:47;5.33;;;2.90;;
34920;SDS011;21128;50.016;20.002;2023-04-03T17:09:14;11.15;;;4.15;;
34920;SDS011;21128;50.016;20.002;2023-04-03T17:11:41;7.87;;;3.52;;
34920;SDS011;21128;50.016;20.002;2023-04-03T17:14:08;7.00;;;3.47;;
34920;SDS011;21128;50.016;20.002;2023-04-03T17:16:36;8.27;;;3.40;;
34920;SDS011;21128;50.016;20.002;2023-04-03T17:19:04;8.07;;;3.43;;
34920;SDS011;21128;50.016;20.002;2023-04-03T17:21:32;8.55;;;2.95;;
34920;SDS011;21128;50.016;20.002;2023-04-03T17:24:00;8.77;;;3.37;;
34920;SDS011;21128;50.016;20.002;2023-04-03T17:26:31;7.13;;;3.17;;
34920;SDS011;21128;50.016;20.002;2023-04-03T17:28:58;6.73;;;3.23;;
34920;SDS011;21128;50.016;20.002;2023-04-03T17:31:25;7.80;;;2.93;;
34920;SDS011;21128;50.016;20.002;2023-04-03T17:33:52;11.73;;;3.30;;
34920;SDS011;21128;50.016;20.002;2023-04-03T17:36:20;7.35;;;3.20;;
34920;SDS011;21128;50.016;20.002;2023-04-03T17:38:49;11.45;;;3.50;;
34920;SDS011;21128;50.016;20.002;2023-04-03T17:41:17;10.63;;;3.10;;